• Join FlightAware (Why Join?)
  • Login
  • US Flag 
09:03PM EDT


 

Airport Tracker/Info


-or-


 

Live Flight TrackerFlight Track Log ✈ N110LD ✈ 02-Jul-2013 ✈ MYSM / ZSA - KSRQ

Flight Track Log - Related Links

Times and Time Zones

All times are in EDT time to prevent confusion due to time zone crossing. See the N110LD flight status page for this flight to view local times or setup timezone preferences in your user account.

Time Position Orientation Groundspeed Altitude Reporting Facility
EDT Latitude Longitude Course Direction KTS MPH feet Rate Location/Type
09:21AM 24.3089 -74.8478 297° West 325 374 11,200  Level Miami Center
09:22AM 24.3494 -74.9156 303° West 291 335 12,600 1,440 Climbing Miami Center
09:23AM 24.3942 -74.9856 305° West 284 327 14,100 1,500 Climbing Miami Center
09:24AM 24.4328 -75.0625 299° West 278 320 15,600 1,500 Climbing Miami Center
09:25AM 24.3353 -74.9467 301° West  Level FlightAware Approximate
09:25AM 24.4650 -75.1350 296° West 273 314 17,100  Level Miami Center
09:26AM 24.3774 -75.0226 301° West  Level FlightAware Approximate
09:26AM 24.4972 -75.2144 294° West 273 314 18,500  Level Miami Center
09:27AM 24.5294 -75.2894 295° West 279 321 19,800 1,140 Climbing Miami Center
09:28AM 24.5636 -75.3667 296° West 274 315 20,800 1,080 Climbing Miami Center
09:29AM 24.6000 -75.4486 296° West 274 315 22,000 1,200 Climbing Miami Center
09:30AM 24.6364 -75.5281 297° West 279 321 23,200 1,200 Climbing Miami Center
09:31AM 24.6706 -75.6103 295° West 284 327 24,400 1,200 Climbing Miami Center
09:32AM 24.7044 -75.6853 296° West 284 327 25,600 1,200 Climbing Miami Center
09:33AM 24.7386 -75.7650 295° West 284 327 26,800 1,140 Climbing Miami Center
09:34AM 24.7725 -75.8333 299° West 279 321 27,900 1,140 Climbing Miami Center
09:35AM 24.8044 -75.9086 295° West 272 313 29,100 1,200 Climbing Miami Center
09:36AM 24.8342 -75.9772 296° West 254 292 30,300 1,200 Climbing Miami Center
09:37AM 24.8636 -76.0411 297° West 240 276 31,500 840 Climbing Miami Center
09:38AM 24.8892 -76.1050 294° West 235 270 32,000 240 Climbing Miami Center
09:39AM 24.9186 -76.1736 295° West 235 270 32,000  Level Miami Center
09:40AM 24.9547 -76.2514 297° West 261 300 32,000  Level Miami Center
09:41AM 24.9906 -76.3314 296° West 283 326 32,000  Level Miami Center
09:42AM 25.0261 -76.4139 295° West 294 338 32,000  Level Miami Center
09:43AM 25.0642 -76.4986 296° West 301 346 32,000  Level Miami Center
09:44AM 25.0997 -76.5833 295° West 306 352 32,000  Level Miami Center
09:45AM 25.1375 -76.6728 295° West 312 359 32,000  Level Miami Center
09:46AM 25.1775 -76.7600 297° West 312 359 32,000  Level Miami Center
09:47AM 25.2150 -76.8472 295° West 312 359 32,000  Level Miami Center
09:48AM 25.2525 -76.9347 295° West 317 365 32,000  Level Miami Center
09:49AM 25.2903 -77.0267 294° West 317 365 32,000  Level Miami Center
09:50AM 25.3278 -77.1117 296° West 317 365 32,000  Level Miami Center
09:51AM 25.3672 -77.2014 296° West 312 359 32,000  Level Miami Center
09:52AM 25.4047 -77.2914 295° West 318 366 32,000  Level Miami Center
09:53AM 25.4439 -77.3811 296° West 318 366 32,000  Level Miami Center
09:54AM 25.4750 -77.4550 295° West 318 366 32,000  Level Miami Center
09:55AM 25.5164 -77.5611 293° West 318 366 32,000  Level Miami Center
09:56AM 25.5556 -77.6533 295° West 318 366 32,000  Level Miami Center
09:57AM 25.5947 -77.7458 295° West 323 372 32,000  Level Miami Center
09:58AM 25.6297 -77.8336 294° West 323 372 32,000  Level Miami Center
09:59AM 25.6689 -77.9264 295° West 323 372 32,000  Level Miami Center
10:00AM 25.7078 -78.0189 295° West 323 372 32,000  Level Miami Center
10:01AM 25.7469 -78.1092 296° West 323 372 32,000  Level Miami Center
10:02AM 25.7836 -78.1997 294° West 327 376 32,000  Level Miami Center
10:03AM 25.8183 -78.2922 293° West 327 376 32,000  Level Miami Center
10:04AM 25.8592 -78.3806 297° West 327 376 32,000  Level Miami Center
10:05AM 25.8981 -78.4733 295° West 327 376 32,000  Level Miami Center
10:06AM 25.9367 -78.5642 295° West 327 376 32,000  Level Miami Center
10:07AM 25.9753 -78.6572 295° West 327 376 32,000  Level Miami Center
10:08AM 26.0117 -78.7478 294° West 327 376 32,000  Level Miami Center
10:09AM 26.0500 -78.8408 295° West 327 376 32,000  Level Miami Center
10:10AM 26.0864 -78.9342 293° West 327 376 32,000  Level Miami Center
10:11AM 26.1269 -79.0250 296° West 327 376 32,000  Level Miami Center
10:12AM 26.1653 -79.1206 294° West 327 376 32,000  Level Miami Center
10:13AM 26.2014 -79.2139 293° West 332 382 32,000  Level Miami Center
10:14AM 26.2375 -79.3072 293° West 332 382 32,000  Level Miami Center
10:15AM 26.2756 -79.4031 294° West 338 389 32,000  Level Miami Center
10:16AM 26.3114 -79.4967 293° West 333 383 32,000  Level Miami Center
10:17AM 26.3494 -79.5903 294° West 333 383 32,000  Level Miami Center
10:18AM 26.3853 -79.6839 293° West 338 389 32,000  Level Miami Center
10:19AM 26.4250 -79.7775 295° West 338 389 32,000  Level Miami Center
10:20AM 26.4631 -79.8689 295° West 332 382 32,000  Level Miami Center
10:21AM 26.5028 -79.9628 295° West 337 388 32,000  Level Miami Center
10:22AM 26.5403 -80.0567 294° West 337 388 32,000  Level Miami Center
10:23AM 26.5781 -80.1531 294° West 337 388 32,000  Level Miami Center
10:24AM 26.6156 -80.2492 294° West 337 388 32,000 -120 Level Miami Center
10:25AM 26.6508 -80.3431 293° West 337 388 31,800 -720 Descending Miami Center
10:26AM 26.6881 -80.4442 292° West 343 395 30,600 -1,320 Descending Miami Center
10:27AM 26.7292 -80.5547 293° West 370 426 29,200 -1,320 Descending Miami Center
10:28AM 26.7722 -80.6631 294° West 380 437 28,000 -1,380 Descending Miami Center
10:29AM 26.8175 -80.7694 296° West 385 443 26,500 -2,160 Descending Miami Center
10:30AM 26.8606 -80.8778 294° West 385 443 23,700 -1,920 Descending Miami Center
10:31AM 26.8683 -80.9642 276° West 326 375 22,700 -1,020 Descending Miami Center
10:32AM 26.8372 -81.0353 244° Southwest 267 307 21,700 -960 Descending Miami Center
10:33AM 26.8058 -81.1064 244° Southwest 273 314 20,800 -900 Descending Miami Center
10:34AM 26.7636 -81.1978 243° Southwest 290 334 19,900 -1,200 Descending Miami Center
10:35AM 26.7336 -81.2875 249° West 305 351 18,400 -1,200 Descending Miami Center
10:36AM 26.7097 -81.3842 255° West 320 368 17,600 -960 Descending Miami Center
10:37AM 26.6881 -81.4764 255° West 315 362 16,500 -840 Descending Miami Center
10:38AM 26.6708 -81.5592 257° West 315 362 16,000 -360 Descending Miami Center
10:39AM 26.6489 -81.6558 256° West 305 351 15,800 -600 Descending Miami Center
10:40AM 26.6353 -81.7506 261° West 310 357 14,900 -900 Descending Miami Center
10:41AM 26.6594 -81.8375 287° West 296 341 14,000 -960 Descending Miami Center
10:42AM 26.7133 -81.9097 310° West 289 333 13,000 -900 Descending Miami Center
10:43AM 26.7825 -81.9661 324° Northwest 284 327 12,200 -780 Descending Miami Center
10:44AM 26.8472 -82.0200 323° Northwest 296 341 11,500 -720 Descending Miami Center
10:45AM 26.9036 -82.0808 316° Northwest 303 349 10,800 -900 Descending Miami Center
10:46AM 26.9681 -82.1419 320° Northwest 303 349 9,800 -1,140 Descending Miami Center
10:47AM 27.0408 -82.2106 320° Northwest 311 358 8,600 -1,380 Descending Miami Center
10:48AM 27.1056 -82.2625 324° Northwest 304 350 7,100 -840 Descending Miami Center
10:49AM 27.1647 -82.3025 329° Northwest 282 325 7,000 -120 Descending Miami Center
10:50AM 27.2306 -82.3219 345° North 252 290 6,900 -480 Descending Miami Center
10:51AM 27.2942 -82.3506 338° Northwest 247 284 6,100 -1,200 Descending Miami Center
10:52AM 27.3594 -82.3958 328° Northwest 253 291 4,600 -1,080 Descending Miami Center
10:53AM 27.4056 -82.4400 320° Northwest 253 291 4,000 -300 Descending Miami Center
10:54AM 27.4481 -82.4797 320° Northwest 227 261 4,000 -480 Level Miami Center
10:55AM 27.4819 -82.5142 318° Northwest 189 217 3,100 -540 Descending Miami Center
10:56AM 27.5142 -82.5461 319° Northwest 166 191 3,000 -480 Descending Miami Center
10:57AM 27.5356 -82.5844 302° West 148 170 2,200 -540 Descending Miami Center
10:59AM 27.4833 -82.6167 209° Southwest 139 160 1,800 -300 Descending Tampa TRACON
11:00AM 27.4500 -82.6167 180° South 108 124 1,500 -540 Descending Tampa TRACON
11:01AM 27.4333 -82.6000 138° Southeast 106 122 800 -720 Descending Tampa TRACON
11:03AM 27.3954 -82.5544 187° South  Level Estimated
11:10AM 27.3954 -82.5544 187° South  Level Estimated